sensor_id;sensor_type;location;lat;lon;timestamp;pressure;altitude;pressure_sealevel;temperature;humidity
23867;BME280;12114;53.404;-1.502;2024-01-07T00:01:24;101667.47;;;6.29;100.00
23867;BME280;12114;53.404;-1.502;2024-01-07T00:04:08;101663.91;;;6.29;100.00
23867;BME280;12114;53.404;-1.502;2024-01-07T00:06:52;101667.41;;;6.34;100.00
23867;BME280;12114;53.404;-1.502;2024-01-07T00:09:36;101674.03;;;6.33;100.00
23867;BME280;12114;53.404;-1.502;2024-01-07T00:12:20;101680.75;;;6.27;100.00
23867;BME280;12114;53.404;-1.502;2024-01-07T00:15:07;101679.31;;;6.30;100.00
23867;BME280;12114;53.404;-1.502;2024-01-07T00:17:52;101679.19;;;6.21;100.00
23867;BME280;12114;53.404;-1.502;2024-01-07T00:20:36;101686.41;;;6.17;100.00
23867;BME280;12114;53.404;-1.502;2024-01-07T00:23:20;101695.28;;;6.14;100.00
23867;BME280;12114;53.404;-1.502;2024-01-07T00:26:07;101695.09;;;6.11;100.00
23867;BME280;12114;53.404;-1.502;2024-01-07T00:28:51;101694.50;;;6.14;100.00
23867;BME280;12114;53.404;-1.502;2024-01-07T00:31:35;101691.41;;;6.15;100.00
23867;BME280;12114;53.404;-1.502;2024-01-07T00:34:19;101697.25;;;6.14;100.00
23867;BME280;12114;53.404;-1.502;2024-01-07T00:37:03;101695.22;;;6.19;100.00
23867;BME280;12114;53.404;-1.502;2024-01-07T00:39:47;101698.00;;;6.19;100.00
23867;BME280;12114;53.404;-1.502;2024-01-07T00:42:32;101701.72;;;6.10;100.00
23867;BME280;12114;53.404;-1.502;2024-01-07T00:45:16;101703.06;;;6.12;100.00
23867;BME280;12114;53.404;-1.502;2024-01-07T00:48:00;101704.91;;;5.98;100.00
23867;BME280;12114;53.404;-1.502;2024-01-07T00:50:44;101721.91;;;6.05;100.00
23867;BME280;12114;53.404;-1.502;2024-01-07T00:53:27;101727.59;;;5.95;100.00
23867;BME280;12114;53.404;-1.502;2024-01-07T00:56:14;101723.88;;;6.04;100.00
23867;BME280;12114;53.404;-1.502;2024-01-07T00:58:58;101726.09;;;6.02;100.00
23867;BME280;12114;53.404;-1.502;2024-01-07T01:01:43;101733.19;;;5.85;100.00
23867;BME280;12114;53.404;-1.502;2024-01-07T01:04:27;101737.63;;;5.81;100.00
23867;BME280;12114;53.404;-1.502;2024-01-07T01:07:13;101734.56;;;5.87;100.00
23867;BME280;12114;53.404;-1.502;2024-01-07T01:09:58;101736.22;;;5.88;100.00
23867;BME280;12114;53.404;-1.502;2024-01-07T01:12:43;101741.72;;;5.88;100.00
23867;BME280;12114;53.404;-1.502;2024-01-07T01:15:27;101741.44;;;6.09;100.00
23867;BME280;12114;53.404;-1.502;2024-01-07T01:18:11;101749.81;;;5.80;100.00
23867;BME280;12114;53.404;-1.502;2024-01-07T01:20:56;101745.16;;;5.75;100.00
23867;BME280;12114;53.404;-1.502;2024-01-07T01:23:40;101743.88;;;5.68;100.00
23867;BME280;12114;53.404;-1.502;2024-01-07T01:26:24;101743.22;;;5.76;100.00
23867;BME280;12114;53.404;-1.502;2024-01-07T01:29:08;101743.94;;;5.63;100.00
23867;BME280;12114;53.404;-1.502;2024-01-07T01:31:52;101750.22;;;5.68;100.00
23867;BME280;12114;53.404;-1.502;2024-01-07T01:34:36;101754.84;;;5.73;100.00
23867;BME280;12114;53.404;-1.502;2024-01-07T01:37:20;101748.34;;;5.64;100.00
23867;BME280;12114;53.404;-1.502;2024-01-07T01:40:04;101749.91;;;5.70;100.00
23867;BME280;12114;53.404;-1.502;2024-01-07T01:42:49;101754.75;;;5.59;100.00
23867;BME280;12114;53.404;-1.502;2024-01-07T01:45:33;101754.97;;;5.63;100.00
23867;BME280;12114;53.404;-1.502;2024-01-07T01:48:17;101765.06;;;5.72;100.00
23867;BME280;12114;53.404;-1.502;2024-01-07T01:51:01;101759.13;;;5.84;100.00
23867;BME280;12114;53.404;-1.502;2024-01-07T01:53:47;101760.13;;;5.93;100.00
23867;BME280;12114;53.404;-1.502;2024-01-07T01:56:31;101773.06;;;5.97;100.00
23867;BME280;12114;53.404;-1.502;2024-01-07T01:59:17;101764.44;;;6.04;100.00
23867;BME280;12114;53.404;-1.502;2024-01-07T02:02:02;101776.28;;;6.04;100.00
23867;BME280;12114;53.404;-1.502;2024-01-07T02:04:46;101779.84;;;6.05;100.00
23867;BME280;12114;53.404;-1.502;2024-01-07T02:07:30;101782.47;;;6.15;100.00
23867;BME280;12114;53.404;-1.502;2024-01-07T02:10:15;101791.34;;;6.12;100.00
23867;BME280;12114;53.404;-1.502;2024-01-07T02:13:00;101785.56;;;6.14;100.00
23867;BME280;12114;53.404;-1.502;2024-01-07T02:15:47;101788.59;;;6.12;100.00
23867;BME280;12114;53.404;-1.502;2024-01-07T02:18:31;101784.66;;;6.18;100.00
23867;BME280;12114;53.404;-1.502;2024-01-07T02:21:16;101796.28;;;6.15;100.00
23867;BME280;12114;53.404;-1.502;2024-01-07T02:24:04;101803.88;;;6.23;100.00
23867;BME280;12114;53.404;-1.502;2024-01-07T02:26:48;101799.47;;;6.03;100.00
23867;BME280;12114;53.404;-1.502;2024-01-07T02:29:32;101804.81;;;5.95;100.00
23867;BME280;12114;53.404;-1.502;2024-01-07T02:32:16;101804.50;;;5.96;100.00
23867;BME280;12114;53.404;-1.502;2024-01-07T02:35:00;101798.72;;;5.98;100.00
23867;BME280;12114;53.404;-1.502;2024-01-07T02:37:44;101807.50;;;6.00;100.00
23867;BME280;12114;53.404;-1.502;2024-01-07T02:40:28;101812.06;;;6.10;100.00
23867;BME280;12114;53.404;-1.502;2024-01-07T02:43:12;101808.97;;;6.16;100.00
23867;BME280;12114;53.404;-1.502;2024-01-07T02:45:56;101817.47;;;6.20;100.00
23867;BME280;12114;53.404;-1.502;2024-01-07T02:48:40;101813.31;;;6.22;100.00
23867;BME280;12114;53.404;-1.502;2024-01-07T02:51:24;101818.06;;;6.17;100.00
23867;BME280;12114;53.404;-1.502;2024-01-07T02:54:08;101821.59;;;6.22;100.00
23867;BME280;12114;53.404;-1.502;2024-01-07T02:56:52;101826.00;;;5.99;100.00
23867;BME280;12114;53.404;-1.502;2024-01-07T02:59:36;101824.28;;;6.03;100.00
23867;BME280;12114;53.404;-1.502;2024-01-07T03:02:20;101814.50;;;5.92;100.00
23867;BME280;12114;53.404;-1.502;2024-01-07T03:05:04;101817.16;;;5.74;100.00
23867;BME280;12114;53.404;-1.502;2024-01-07T03:07:48;101817.16;;;5.74;100.00
23867;BME280;12114;53.404;-1.502;2024-01-07T03:10:33;101823.25;;;5.71;100.00
23867;BME280;12114;53.404;-1.502;2024-01-07T03:13:17;101819.34;;;5.77;100.00
23867;BME280;12114;53.404;-1.502;2024-01-07T03:16:01;101828.13;;;5.79;100.00
23867;BME280;12114;53.404;-1.502;2024-01-07T03:18:45;101831.28;;;5.67;100.00
23867;BME280;12114;53.404;-1.502;2024-01-07T03:21:29;101839.69;;;5.86;100.00
23867;BME280;12114;53.404;-1.502;2024-01-07T03:24:13;101849.03;;;5.85;100.00
23867;BME280;12114;53.404;-1.502;2024-01-07T03:26:57;101844.03;;;5.92;100.00
23867;BME280;12114;53.404;-1.502;2024-01-07T03:29:41;101844.78;;;5.97;100.00
23867;BME280;12114;53.404;-1.502;2024-01-07T03:32:25;101843.88;;;6.02;100.00
23867;BME280;12114;53.404;-1.502;2024-01-07T03:35:09;101848.38;;;5.98;100.00
23867;BME280;12114;53.404;-1.502;2024-01-07T03:37:53;101846.38;;;6.03;100.00
23867;BME280;12114;53.404;-1.502;2024-01-07T03:40:37;101850.72;;;6.10;100.00
23867;BME280;12114;53.404;-1.502;2024-01-07T03:43:21;101854.91;;;6.02;100.00
23867;BME280;12114;53.404;-1.502;2024-01-07T03:46:05;101854.22;;;5.91;100.00
23867;BME280;12114;53.404;-1.502;2024-01-07T03:48:49;101848.13;;;5.94;100.00
23867;BME280;12114;53.404;-1.502;2024-01-07T03:51:33;101860.44;;;6.02;100.00
23867;BME280;12114;53.404;-1.502;2024-01-07T03:54:17;101851.66;;;6.00;100.00
23867;BME280;12114;53.404;-1.502;2024-01-07T03:57:01;101861.50;;;6.06;100.00
23867;BME280;12114;53.404;-1.502;2024-01-07T03:59:45;101854.88;;;6.07;100.00
23867;BME280;12114;53.404;-1.502;2024-01-07T04:02:29;101852.63;;;6.09;100.00
23867;BME280;12114;53.404;-1.502;2024-01-07T04:05:13;101873.03;;;6.13;100.00
23867;BME280;12114;53.404;-1.502;2024-01-07T04:08:02;101861.69;;;6.15;100.00
23867;BME280;12114;53.404;-1.502;2024-01-07T04:10:46;101867.25;;;5.86;100.00
23867;BME280;12114;53.404;-1.502;2024-01-07T04:13:30;101864.22;;;5.82;100.00
23867;BME280;12114;53.404;-1.502;2024-01-07T04:16:20;101877.72;;;5.89;100.00
23867;BME280;12114;53.404;-1.502;2024-01-07T04:19:05;101883.53;;;5.82;100.00
23867;BME280;12114;53.404;-1.502;2024-01-07T04:21:49;101886.97;;;5.69;100.00
23867;BME280;12114;53.404;-1.502;2024-01-07T04:24:33;101883.88;;;5.76;100.00
23867;BME280;12114;53.404;-1.502;2024-01-07T04:27:17;101886.03;;;5.79;100.00
23867;BME280;12114;53.404;-1.502;2024-01-07T04:30:02;101890.94;;;5.87;100.00
23867;BME280;12114;53.404;-1.502;2024-01-07T04:32:46;101885.53;;;5.77;100.00
23867;BME280;12114;53.404;-1.502;2024-01-07T04:35:30;101893.25;;;5.75;100.00
23867;BME280;12114;53.404;-1.502;2024-01-07T04:38:14;101892.91;;;5.53;100.00
23867;BME280;12114;53.404;-1.502;2024-01-07T04:40:58;101892.53;;;5.64;100.00
23867;BME280;12114;53.404;-1.502;2024-01-07T04:43:43;101891.19;;;5.62;100.00
23867;BME280;12114;53.404;-1.502;2024-01-07T04:46:27;101899.97;;;5.64;100.00
23867;BME280;12114;53.404;-1.502;2024-01-07T04:49:11;101893.25;;;5.75;100.00
23867;BME280;12114;53.404;-1.502;2024-01-07T04:51:55;101906.31;;;5.64;100.00
23867;BME280;12114;53.404;-1.502;2024-01-07T04:54:39;101893.97;;;5.57;100.00
23867;BME280;12114;53.404;-1.502;2024-01-07T04:57:23;101894.72;;;5.67;100.00
23867;BME280;12114;53.404;-1.502;2024-01-07T05:00:08;101892.22;;;5.66;100.00
23867;BME280;12114;53.404;-1.502;2024-01-07T05:02:52;101896.06;;;5.70;100.00
23867;BME280;12114;53.404;-1.502;2024-01-07T05:05:36;101895.53;;;5.68;100.00
23867;BME280;12114;53.404;-1.502;2024-01-07T05:08:23;101907.03;;;5.75;100.00
23867;BME280;12114;53.404;-1.502;2024-01-07T05:11:07;101900.47;;;5.71;100.00
23867;BME280;12114;53.404;-1.502;2024-01-07T05:13:51;101898.47;;;5.47;100.00
23867;BME280;12114;53.404;-1.502;2024-01-07T05:16:35;101900.06;;;5.53;100.00
23867;BME280;12114;53.404;-1.502;2024-01-07T05:19:19;101897.84;;;5.56;100.00
23867;BME280;12114;53.404;-1.502;2024-01-07T05:22:03;101906.38;;;5.59;100.00
23867;BME280;12114;53.404;-1.502;2024-01-07T05:24:47;101916.03;;;5.57;100.00
23867;BME280;12114;53.404;-1.502;2024-01-07T05:27:31;101911.97;;;5.49;100.00
23867;BME280;12114;53.404;-1.502;2024-01-07T05:30:15;101917.16;;;5.56;100.00
23867;BME280;12114;53.404;-1.502;2024-01-07T05:32:59;101925.56;;;5.40;100.00
23867;BME280;12114;53.404;-1.502;2024-01-07T05:35:42;101925.44;;;5.50;100.00
23867;BME280;12114;53.404;-1.502;2024-01-07T05:38:26;101936.78;;;5.49;100.00
23867;BME280;12114;53.404;-1.502;2024-01-07T05:41:13;101934.84;;;5.49;100.00
23867;BME280;12114;53.404;-1.502;2024-01-07T05:43:58;101946.25;;;5.33;100.00
23867;BME280;12114;53.404;-1.502;2024-01-07T05:46:44;101941.88;;;5.32;100.00
23867;BME280;12114;53.404;-1.502;2024-01-07T05:49:28;101943.50;;;5.33;100.00
23867;BME280;12114;53.404;-1.502;2024-01-07T05:52:12;101949.94;;;5.18;100.00
23867;BME280;12114;53.404;-1.502;2024-01-07T05:54:56;101946.09;;;5.19;100.00
23867;BME280;12114;53.404;-1.502;2024-01-07T05:57:40;101954.84;;;5.26;100.00
23867;BME280;12114;53.404;-1.502;2024-01-07T06:00:24;101949.31;;;5.31;100.00
23867;BME280;12114;53.404;-1.502;2024-01-07T06:03:10;101954.84;;;5.31;100.00
23867;BME280;12114;53.404;-1.502;2024-01-07T06:06:00;101951.72;;;5.43;100.00
23867;BME280;12114;53.404;-1.502;2024-01-07T06:08:44;101956.81;;;5.21;100.00
23867;BME280;12114;53.404;-1.502;2024-01-07T06:11:28;101957.59;;;5.31;100.00
23867;BME280;12114;53.404;-1.502;2024-01-07T06:14:12;101959.44;;;5.41;100.00
23867;BME280;12114;53.404;-1.502;2024-01-07T06:16:59;101954.25;;;5.34;100.00
23867;BME280;12114;53.404;-1.502;2024-01-07T06:19:43;101955.63;;;5.37;100.00
23867;BME280;12114;53.404;-1.502;2024-01-07T06:22:28;101966.56;;;5.47;100.00
23867;BME280;12114;53.404;-1.502;2024-01-07T06:25:12;101966.53;;;5.52;100.00
23867;BME280;12114;53.404;-1.502;2024-01-07T06:27:59;101972.66;;;5.44;100.00
23867;BME280;12114;53.404;-1.502;2024-01-07T06:30:43;101982.34;;;5.36;100.00
23867;BME280;12114;53.404;-1.502;2024-01-07T06:33:27;101976.22;;;5.44;100.00
23867;BME280;12114;53.404;-1.502;2024-01-07T06:36:11;101975.38;;;5.49;100.00
23867;BME280;12114;53.404;-1.502;2024-01-07T06:38:55;101996.84;;;5.52;100.00
23867;BME280;12114;53.404;-1.502;2024-01-07T06:41:39;101990.25;;;5.48;100.00
23867;BME280;12114;53.404;-1.502;2024-01-07T06:44:26;101991.28;;;5.57;100.00
23867;BME280;12114;53.404;-1.502;2024-01-07T06:47:10;101990.00;;;5.44;100.00
23867;BME280;12114;53.404;-1.502;2024-01-07T06:49:54;101997.75;;;5.42;100.00
23867;BME280;12114;53.404;-1.502;2024-01-07T06:52:38;101998.84;;;5.41;100.00
23867;BME280;12114;53.404;-1.502;2024-01-07T06:55:25;102001.06;;;5.39;100.00
23867;BME280;12114;53.404;-1.502;2024-01-07T06:58:09;102002.22;;;5.33;100.00
23867;BME280;12114;53.404;-1.502;2024-01-07T07:00:53;102011.56;;;5.37;100.00
23867;BME280;12114;53.404;-1.502;2024-01-07T07:03:37;102022.03;;;5.40;100.00
23867;BME280;12114;53.404;-1.502;2024-01-07T07:06:21;102022.84;;;5.41;100.00
23867;BME280;12114;53.404;-1.502;2024-01-07T07:09:05;102021.44;;;5.43;100.00
23867;BME280;12114;53.404;-1.502;2024-01-07T07:11:49;102034.34;;;5.48;100.00
23867;BME280;12114;53.404;-1.502;2024-01-07T07:14:33;102026.06;;;5.53;100.00
23867;BME280;12114;53.404;-1.502;2024-01-07T07:17:17;102036.00;;;5.49;100.00
23867;BME280;12114;53.404;-1.502;2024-01-07T07:20:01;102036.78;;;5.55;100.00
23867;BME280;12114;53.404;-1.502;2024-01-07T07:22:46;102041.75;;;5.58;100.00
23867;BME280;12114;53.404;-1.502;2024-01-07T07:25:30;102039.28;;;5.56;100.00
23867;BME280;12114;53.404;-1.502;2024-01-07T07:28:14;102042.81;;;5.62;100.00
23867;BME280;12114;53.404;-1.502;2024-01-07T07:30:58;102044.19;;;5.64;100.00
23867;BME280;12114;53.404;-1.502;2024-01-07T07:33:42;102052.19;;;5.61;100.00
23867;BME280;12114;53.404;-1.502;2024-01-07T07:36:26;102055.53;;;5.58;100.00
23867;BME280;12114;53.404;-1.502;2024-01-07T07:39:09;102062.66;;;5.64;100.00
23867;BME280;12114;53.404;-1.502;2024-01-07T07:41:54;102061.56;;;5.60;100.00
23867;BME280;12114;53.404;-1.502;2024-01-07T07:44:38;102064.06;;;5.61;100.00
23867;BME280;12114;53.404;-1.502;2024-01-07T07:47:23;102064.63;;;5.58;100.00
23867;BME280;12114;53.404;-1.502;2024-01-07T07:50:07;102073.16;;;5.62;100.00
23867;BME280;12114;53.404;-1.502;2024-01-07T07:52:51;102075.91;;;5.62;100.00
23867;BME280;12114;53.404;-1.502;2024-01-07T07:55:35;102088.88;;;5.61;100.00
23867;BME280;12114;53.404;-1.502;2024-01-07T07:58:19;102094.16;;;5.53;100.00
23867;BME280;12114;53.404;-1.502;2024-01-07T08:01:03;102096.13;;;5.47;100.00
23867;BME280;12114;53.404;-1.502;2024-01-07T08:03:48;102092.53;;;5.46;100.00
23867;BME280;12114;53.404;-1.502;2024-01-07T08:06:32;102103.00;;;5.49;100.00
23867;BME280;12114;53.404;-1.502;2024-01-07T08:09:16;102114.03;;;5.44;100.00
23867;BME280;12114;53.404;-1.502;2024-01-07T08:12:00;102113.50;;;5.42;100.00
23867;BME280;12114;53.404;-1.502;2024-01-07T08:14:44;102123.44;;;5.38;100.00
23867;BME280;12114;53.404;-1.502;2024-01-07T08:17:29;102121.56;;;5.29;100.00
23867;BME280;12114;53.404;-1.502;2024-01-07T08:20:14;102120.94;;;5.47;100.00
23867;BME280;12114;53.404;-1.502;2024-01-07T08:22:57;102126.97;;;5.49;100.00
23867;BME280;12114;53.404;-1.502;2024-01-07T08:25:41;102128.34;;;5.51;100.00
23867;BME280;12114;53.404;-1.502;2024-01-07T08:28:25;102139.91;;;5.53;100.00
23867;BME280;12114;53.404;-1.502;2024-01-07T08:31:09;102140.72;;;5.59;100.00
23867;BME280;12114;53.404;-1.502;2024-01-07T08:33:54;102139.94;;;5.48;100.00
23867;BME280;12114;53.404;-1.502;2024-01-07T08:36:38;102144.41;;;5.34;100.00
23867;BME280;12114;53.404;-1.502;2024-01-07T08:39:22;102149.41;;;5.27;100.00
23867;BME280;12114;53.404;-1.502;2024-01-07T08:42:06;102158.19;;;5.34;100.00
23867;BME280;12114;53.404;-1.502;2024-01-07T08:44:50;102155.13;;;5.46;100.00
23867;BME280;12114;53.404;-1.502;2024-01-07T08:47:33;102153.41;;;5.55;100.00
23867;BME280;12114;53.404;-1.502;2024-01-07T08:50:20;102155.91;;;5.51;100.00
23867;BME280;12114;53.404;-1.502;2024-01-07T08:53:04;102145.97;;;5.56;100.00
23867;BME280;12114;53.404;-1.502;2024-01-07T08:55:48;102150.94;;;5.59;100.00
23867;BME280;12114;53.404;-1.502;2024-01-07T08:58:35;102146.19;;;5.64;100.00
23867;BME280;12114;53.404;-1.502;2024-01-07T09:01:21;102146.19;;;5.64;100.00
23867;BME280;12114;53.404;-1.502;2024-01-07T09:04:04;102150.63;;;5.65;100.00
23867;BME280;12114;53.404;-1.502;2024-01-07T09:06:49;102146.47;;;5.68;100.00
23867;BME280;12114;53.404;-1.502;2024-01-07T09:09:35;102146.81;;;5.51;100.00
23867;BME280;12114;53.404;-1.502;2024-01-07T09:12:19;102148.09;;;5.74;100.00
23867;BME280;12114;53.404;-1.502;2024-01-07T09:15:07;102152.41;;;5.90;100.00
23867;BME280;12114;53.404;-1.502;2024-01-07T09:17:54;102150.75;;;5.84;100.00
23867;BME280;12114;53.404;-1.502;2024-01-07T09:20:38;102156.59;;;5.82;100.00
23867;BME280;12114;53.404;-1.502;2024-01-07T09:23:22;102152.72;;;5.83;100.00
23867;BME280;12114;53.404;-1.502;2024-01-07T09:26:06;102149.41;;;5.81;100.00
23867;BME280;12114;53.404;-1.502;2024-01-07T09:28:51;102160.16;;;5.88;100.00
23867;BME280;12114;53.404;-1.502;2024-01-07T09:31:36;102168.41;;;5.93;100.00
23867;BME280;12114;53.404;-1.502;2024-01-07T09:34:20;102169.53;;;5.92;100.00
23867;BME280;12114;53.404;-1.502;2024-01-07T09:37:04;102172.56;;;5.90;100.00
23867;BME280;12114;53.404;-1.502;2024-01-07T09:39:48;102178.06;;;5.90;100.00
23867;BME280;12114;53.404;-1.502;2024-01-07T09:42:32;102178.63;;;5.92;100.00
23867;BME280;12114;53.404;-1.502;2024-01-07T09:45:18;102179.38;;;6.03;100.00
23867;BME280;12114;53.404;-1.502;2024-01-07T09:48:02;102184.69;;;5.94;100.00
23867;BME280;12114;53.404;-1.502;2024-01-07T09:50:47;102194.63;;;5.95;100.00
23867;BME280;12114;53.404;-1.502;2024-01-07T09:53:35;102190.16;;;6.04;100.00
23867;BME280;12114;53.404;-1.502;2024-01-07T09:56:24;102193.13;;;6.08;100.00
23867;BME280;12114;53.404;-1.502;2024-01-07T09:59:09;102189.88;;;6.01;100.00
23867;BME280;12114;53.404;-1.502;2024-01-07T10:01:55;102198.66;;;6.08;100.00
23867;BME280;12114;53.404;-1.502;2024-01-07T10:04:39;102200.31;;;6.09;100.00
23867;BME280;12114;53.404;-1.502;2024-01-07T10:07:24;102195.72;;;5.94;100.00
23867;BME280;12114;53.404;-1.502;2024-01-07T10:12:57;102200.31;;;6.09;100.00
23867;BME280;12114;53.404;-1.502;2024-01-07T10:15:41;102203.59;;;6.11;100.00
23867;BME280;12114;53.404;-1.502;2024-01-07T10:18:25;102207.53;;;6.00;100.00
23867;BME280;12114;53.404;-1.502;2024-01-07T10:21:09;102214.94;;;6.10;100.00
23867;BME280;12114;53.404;-1.502;2024-01-07T10:24:10;102209.16;;;6.06;100.00
23867;BME280;12114;53.404;-1.502;2024-01-07T10:26:55;102216.91;;;5.99;100.00
23867;BME280;12114;53.404;-1.502;2024-01-07T10:29:39;102221.53;;;6.14;100.00
23867;BME280;12114;53.404;-1.502;2024-01-07T10:32:24;102211.97;;;5.96;100.00
23867;BME280;12114;53.404;-1.502;2024-01-07T10:35:12;102213.84;;;6.05;100.00
23867;BME280;12114;53.404;-1.502;2024-01-07T10:37:56;102221.16;;;5.86;100.00
23867;BME280;12114;53.404;-1.502;2024-01-07T10:40:40;102219.59;;;6.14;100.00
23867;BME280;12114;53.404;-1.502;2024-01-07T10:43:29;102221.19;;;6.25;100.00
23867;BME280;12114;53.404;-1.502;2024-01-07T10:46:14;102227.56;;;6.21;100.00
23867;BME280;12114;53.404;-1.502;2024-01-07T10:49:00;102231.41;;;6.25;100.00
23867;BME280;12114;53.404;-1.502;2024-01-07T10:52:07;102228.69;;;6.20;100.00
23867;BME280;12114;53.404;-1.502;2024-01-07T10:54:52;102223.63;;;6.32;100.00
23867;BME280;12114;53.404;-1.502;2024-01-07T10:57:44;102221.59;;;6.03;100.00
23867;BME280;12114;53.404;-1.502;2024-01-07T11:00:29;102229.47;;;6.20;100.00
23867;BME280;12114;53.404;-1.502;2024-01-07T11:03:43;102221.19;;;6.25;100.00
23867;BME280;12114;53.404;-1.502;2024-01-07T11:06:41;102239.91;;;6.33;100.00
23867;BME280;12114;53.404;-1.502;2024-01-07T11:09:37;102233.84;;;6.31;100.00
23867;BME280;12114;53.404;-1.502;2024-01-07T11:12:23;102245.16;;;6.30;100.00
23867;BME280;12114;53.404;-1.502;2024-01-07T11:15:08;102244.91;;;6.26;100.00
23867;BME280;12114;53.404;-1.502;2024-01-07T11:17:52;102237.28;;;6.13;100.00
23867;BME280;12114;53.404;-1.502;2024-01-07T11:20:40;102242.56;;;6.04;100.00
23867;BME280;12114;53.404;-1.502;2024-01-07T11:23:34;102244.59;;;6.33;100.00
23867;BME280;12114;53.404;-1.502;2024-01-07T11:26:23;102243.28;;;6.20;100.00
23867;BME280;12114;53.404;-1.502;2024-01-07T11:29:08;102241.31;;;6.31;100.00
23867;BME280;12114;53.404;-1.502;2024-01-07T11:31:56;102242.63;;;6.38;100.00
23867;BME280;12114;53.404;-1.502;2024-01-07T11:37:27;102243.53;;;6.29;100.00
23867;BME280;12114;53.404;-1.502;2024-01-07T11:40:13;102240.69;;;6.39;100.00
23867;BME280;12114;53.404;-1.502;2024-01-07T11:42:57;102251.97;;;6.47;100.00
23867;BME280;12114;53.404;-1.502;2024-01-07T11:45:42;102241.56;;;6.29;100.00
23867;BME280;12114;53.404;-1.502;2024-01-07T11:48:26;102240.78;;;6.24;100.00
23867;BME280;12114;53.404;-1.502;2024-01-07T11:51:11;102247.97;;;6.25;100.00
23867;BME280;12114;53.404;-1.502;2024-01-07T11:53:57;102242.97;;;6.27;100.00
23867;BME280;12114;53.404;-1.502;2024-01-07T11:56:41;102248.22;;;6.28;100.00
23867;BME280;12114;53.404;-1.502;2024-01-07T11:59:26;102247.28;;;6.43;100.00
23867;BME280;12114;53.404;-1.502;2024-01-07T12:02:10;102249.25;;;6.37;100.00
23867;BME280;12114;53.404;-1.502;2024-01-07T12:04:54;102241.00;;;6.32;100.00
23867;BME280;12114;53.404;-1.502;2024-01-07T12:07:38;102243.63;;;6.09;100.00
23867;BME280;12114;53.404;-1.502;2024-01-07T12:10:23;102234.47;;;6.18;100.00
23867;BME280;12114;53.404;-1.502;2024-01-07T12:13:08;102241.09;;;6.17;100.00
23867;BME280;12114;53.404;-1.502;2024-01-07T12:15:53;102240.81;;;6.19;100.00
23867;BME280;12114;53.404;-1.502;2024-01-07T12:18:41;102234.47;;;6.18;100.00
23867;BME280;12114;53.404;-1.502;2024-01-07T12:21:26;102238.66;;;6.11;100.00
23867;BME280;12114;53.404;-1.502;2024-01-07T12:24:12;102235.56;;;6.22;100.00
23867;BME280;12114;53.404;-1.502;2024-01-07T12:27:06;102235.47;;;6.32;100.00
23867;BME280;12114;53.404;-1.502;2024-01-07T12:29:57;102245.41;;;6.33;100.00
23867;BME280;12114;53.404;-1.502;2024-01-07T12:32:41;102236.88;;;6.35;100.00
23867;BME280;12114;53.404;-1.502;2024-01-07T12:35:26;102235.94;;;6.44;100.00
23867;BME280;12114;53.404;-1.502;2024-01-07T12:38:14;102235.41;;;6.47;100.00
23867;BME280;12114;53.404;-1.502;2024-01-07T12:40:58;102234.63;;;6.37;100.00
23867;BME280;12114;53.404;-1.502;2024-01-07T12:43:42;102238.34;;;6.17;100.00
23867;BME280;12114;53.404;-1.502;2024-01-07T12:46:26;102232.75;;;6.27;100.00
23867;BME280;12114;53.404;-1.502;2024-01-07T12:49:10;102240.19;;;6.32;100.00
23867;BME280;12114;53.404;-1.502;2024-01-07T12:51:54;102229.22;;;6.22;100.00
23867;BME280;12114;53.404;-1.502;2024-01-07T12:54:38;102228.13;;;6.23;100.00
23867;BME280;12114;53.404;-1.502;2024-01-07T12:57:22;102230.53;;;6.29;100.00
23867;BME280;12114;53.404;-1.502;2024-01-07T13:00:07;102228.78;;;6.43;100.00
23867;BME280;12114;53.404;-1.502;2024-01-07T13:02:52;102232.13;;;6.40;100.00
23867;BME280;12114;53.404;-1.502;2024-01-07T13:05:39;102225.78;;;6.74;100.00
23867;BME280;12114;53.404;-1.502;2024-01-07T13:08:25;102231.19;;;6.55;100.00
23867;BME280;12114;53.404;-1.502;2024-01-07T13:11:10;102225.03;;;6.63;100.00
23867;BME280;12114;53.404;-1.502;2024-01-07T13:13:57;102228.53;;;6.40;100.00
23867;BME280;12114;53.404;-1.502;2024-01-07T13:16:44;102229.38;;;6.35;100.00
23867;BME280;12114;53.404;-1.502;2024-01-07T13:19:28;102227.38;;;6.46;100.00
23867;BME280;12114;53.404;-1.502;2024-01-07T13:22:14;102218.34;;;6.74;100.00
23867;BME280;12114;53.404;-1.502;2024-01-07T13:24:58;102215.97;;;6.57;100.00
23867;BME280;12114;53.404;-1.502;2024-01-07T13:27:42;102219.38;;;6.49;100.00
23867;BME280;12114;53.404;-1.502;2024-01-07T13:30:26;102227.13;;;6.42;100.00
23867;BME280;12114;53.404;-1.502;2024-01-07T13:33:10;102217.75;;;6.43;100.00
23867;BME280;12114;53.404;-1.502;2024-01-07T13:35:54;102218.22;;;6.55;100.00
23867;BME280;12114;53.404;-1.502;2024-01-07T13:38:39;102218.53;;;6.49;100.00
23867;BME280;12114;53.404;-1.502;2024-01-07T13:41:25;102225.72;;;6.50;100.00
23867;BME280;12114;53.404;-1.502;2024-01-07T13:44:12;102218.91;;;6.32;100.00
23867;BME280;12114;53.404;-1.502;2024-01-07T13:47:06;102221.66;;;6.37;100.00
23867;BME280;12114;53.404;-1.502;2024-01-07T13:49:51;102232.41;;;6.39;100.00
23867;BME280;12114;53.404;-1.502;2024-01-07T13:52:35;102232.84;;;6.56;100.00
23867;BME280;12114;53.404;-1.502;2024-01-07T13:55:19;102228.47;;;6.50;100.00
23867;BME280;12114;53.404;-1.502;2024-01-07T13:58:03;102233.38;;;6.58;100.00
23867;BME280;12114;53.404;-1.502;2024-01-07T14:00:47;102235.63;;;6.51;100.00
23867;BME280;12114;53.404;-1.502;2024-01-07T14:03:31;102222.84;;;6.60;100.00
23867;BME280;12114;53.404;-1.502;2024-01-07T14:06:16;102227.59;;;6.54;100.00
23867;BME280;12114;53.404;-1.502;2024-01-07T14:09:00;102223.16;;;6.58;100.00
23867;BME280;12114;53.404;-1.502;2024-01-07T14:11:44;102227.91;;;6.53;100.00
23867;BME280;12114;53.404;-1.502;2024-01-07T14:14:29;102231.72;;;6.57;100.00
23867;BME280;12114;53.404;-1.502;2024-01-07T14:17:13;102223.72;;;6.55;100.00